Time;durP1;ratioP1;P1;durP2;ratioP2;P2;SDS_P1;SDS_P2;PMS_P1;PMS_P2;Temp;Humidity;BMP_temperature;BMP_pressure;BME280_temperature;BME280_humidity;BME280_pressure;Samples;Min_cycle;Max_cycle;Signal;HPM_P1;HPM_P2
2022/04/11 00:06:35;;;;;;;2.80;1.65;;;;;;;6.83;47.86;100851.81;18559949;32;20111;-62
2022/04/11 00:16:40;;;;;;;1.77;1.60;;;;;;;5.66;51.55;100851.75;18544554;32;20119;-62
2022/04/11 00:26:43;;;;;;;4.97;2.00;;;;;;;5.75;52.44;100845.94;18558657;32;20111;-62
2022/04/11 00:36:47;;;;;;;2.72;1.45;;;;;;;5.78;52.29;100853.78;18559131;32;20118;-62
2022/04/11 00:46:50;;;;;;;2.92;1.95;;;;;;;5.77;52.54;100864.09;18557266;32;20088;-62
2022/04/11 00:56:55;;;;;;;1.90;1.50;;;;;;;5.57;54.42;100861.88;18556865;32;20092;-62
2022/04/11 01:06:59;;;;;;;4.30;1.95;;;;;;;5.62;52.71;100865.47;18548187;32;20096;-62
2022/04/11 01:17:04;;;;;;;3.33;1.50;;;;;;;5.13;54.37;100859.84;18565233;32;20107;-62
2022/04/11 01:27:08;;;;;;;2.35;1.52;;;;;;;5.33;53.56;100857.81;18565083;32;20151;-62
2022/04/11 01:37:12;;;;;;;1.95;1.40;;;;;;;5.19;53.22;100859.12;18564889;32;20129;-62
2022/04/11 01:47:16;;;;;;;5.37;2.45;;;;;;;4.67;55.80;100880.13;18564080;32;20432;-62
2022/04/11 01:57:19;;;;;;;2.03;1.30;;;;;;;4.38;56.18;100898.22;18564174;32;20483;-62
2022/04/11 02:07:24;;;;;;;3.35;1.42;;;;;;;4.23;56.34;100901.19;18563965;32;20105;-62
2022/04/11 02:17:27;;;;;;;2.60;1.60;;;;;;;4.34;57.31;100902.41;18563080;32;20350;-62
2022/04/11 02:27:31;;;;;;;3.92;1.73;;;;;;;4.11;58.25;100912.00;18563617;32;20642;-62
2022/04/11 02:37:35;;;;;;;2.50;1.85;;;;;;;4.33;57.57;100912.69;18563346;32;20092;-62
2022/04/11 02:47:40;;;;;;;2.25;1.40;;;;;;;4.34;58.73;100922.19;18562635;32;20181;-62
2022/04/11 02:57:43;;;;;;;2.00;1.60;;;;;;;5.21;54.69;100920.47;18562458;32;20485;-62
2022/04/11 03:07:47;;;;;;;3.10;1.45;;;;;;;6.20;51.45;100917.00;18562482;32;20092;-62
2022/04/11 03:17:50;;;;;;;4.32;2.20;;;;;;;6.43;50.75;100932.22;18562118;32;20139;-62
2022/04/11 03:27:55;;;;;;;3.28;1.60;;;;;;;6.52;51.00;100935.03;18561414;32;20145;-62
2022/04/11 03:38:03;;;;;;;3.55;2.05;;;;;;;6.44;51.43;100938.31;18561220;32;20098;-62
2022/04/11 03:48:08;;;;;;;2.90;1.60;;;;;;;6.43;50.93;100960.75;18560486;32;20100;-62
2022/04/11 03:58:12;;;;;;;2.17;1.58;;;;;;;5.71;52.76;100978.78;18560302;32;20096;-62
2022/04/11 04:08:17;;;;;;;3.65;1.70;;;;;;;5.17;55.42;100995.41;18559834;32;20104;-62
2022/04/11 04:18:20;;;;;;;2.72;1.55;;;;;;;4.70;57.55;101010.41;18559342;32;20137;-62
2022/04/11 04:28:25;;;;;;;3.00;2.10;;;;;;;4.98;57.49;101021.62;18558631;32;20092;-62
2022/04/11 04:38:28;;;;;;;4.72;2.60;;;;;;;5.76;55.43;101029.03;18560984;32;20149;-62
2022/04/11 04:48:32;;;;;;;7.82;3.75;;;;;;;5.37;56.77;101037.44;18565780;32;20109;-62
2022/04/11 04:58:36;;;;;;;4.10;2.08;;;;;;;5.85;57.64;101032.72;18565959;32;20114;-62
2022/04/11 05:08:40;;;;;;;5.82;2.35;;;;;;;7.04;52.95;101037.41;18565759;32;20100;-63
2022/04/11 05:18:43;;;;;;;4.70;2.00;;;;;;;7.54;51.60;101043.66;18565263;32;20096;-62
2022/04/11 05:28:49;;;;;;;6.47;2.87;;;;;;;8.09;50.08;101043.87;18565979;32;20096;-63
2022/04/11 05:38:52;;;;;;;3.47;1.98;;;;;;;9.05;47.57;101048.91;18565194;32;20104;-63
2022/04/11 05:48:56;;;;;;;5.30;2.17;;;;;;;9.86;45.33;101043.00;18563098;32;20119;-63
2022/04/11 05:59:03;;;;;;;4.53;2.00;;;;;;;11.87;40.74;101033.94;18564172;32;20114;-63
2022/04/11 06:09:08;;;;;;;4.87;1.92;;;;;;;13.42;37.31;101033.87;18564157;32;20088;-63
2022/04/11 06:19:11;;;;;;;4.47;2.25;;;;;;;14.87;34.03;101026.81;18563201;32;20141;-63
2022/04/11 06:29:16;;;;;;;4.03;2.00;;;;;;;16.36;30.42;101027.56;18562788;32;20093;-64
2022/04/11 06:39:19;;;;;;;5.07;2.40;;;;;;;17.80;29.04;101021.28;18559923;32;20145;-64
2022/04/11 06:49:23;;;;;;;4.00;1.98;;;;;;;18.36;27.50;101025.31;18560795;32;20136;-63
2022/04/11 06:59:32;;;;;;;4.40;2.17;;;;;;;20.36;24.28;101020.53;18561512;32;20130;-64
2022/04/11 07:09:37;;;;;;;3.83;1.58;;;;;;;21.34;22.83;101030.41;18587528;31;20096;-64
2022/04/11 07:19:40;;;;;;;4.32;1.58;;;;;;;21.53;21.33;101037.66;18625059;31;20453;-64
2022/04/11 07:29:45;;;;;;;3.50;1.35;;;;;;;21.90;21.17;101041.59;18626459;31;20457;-64
2022/04/11 07:39:48;;;;;;;3.05;1.40;;;;;;;20.17;23.00;101041.47;18627059;31;20099;-64
2022/04/11 07:49:54;;;;;;;3.35;1.40;;;;;;;19.09;25.10;101051.69;18608608;31;75104;-64
2022/04/11 07:59:57;;;;;;;3.10;1.45;;;;;;;16.89;27.30;101060.94;18625349;31;20111;-65
2022/04/11 08:10:02;;;;;;;3.60;1.80;;;;;;;16.53;27.59;101060.66;18614975;31;20178;-64
2022/04/11 08:20:06;;;;;;;3.83;1.62;;;;;;;15.08;28.89;101063.44;18559124;31;20169;-63
2022/04/11 08:30:13;;;;;;;5.10;1.60;;;;;;;14.15;30.93;101056.28;18544251;31;20112;-64
2022/04/11 08:40:19;;;;;;;4.15;1.80;;;;;;;14.01;32.14;101054.59;18543651;31;20122;-65
2022/04/11 08:50:25;;;;;;;2.95;1.62;;;;;;;14.22;31.76;101050.09;18557075;31;20115;-64
2022/04/11 09:00:31;;;;;;;3.25;1.70;;;;;;;13.96;32.63;101045.91;18555928;32;20128;-65
2022/04/11 09:10:37;;;;;;;4.37;2.00;;;;;;;14.15;31.14;101044.00;18555868;31;20398;-64
2022/04/11 09:20:42;;;;;;;4.22;2.22;;;;;;;14.06;33.14;101032.72;18555562;31;20111;-64
2022/04/11 09:30:49;;;;;;;3.87;1.80;;;;;;;14.87;32.05;101018.94;18564294;31;20084;-64
2022/04/11 09:40:54;;;;;;;3.90;2.20;;;;;;;16.21;31.54;101020.75;18588541;31;20104;-64
2022/04/11 09:51:00;;;;;;;2.12;1.42;;;;;;;17.51;28.73;101020.16;18629204;31;20096;-64
2022/04/11 10:01:06;;;;;;;3.08;1.50;;;;;;;16.91;28.41;101015.16;18629707;31;20103;-65
2022/04/11 10:11:10;;;;;;;5.15;1.87;;;;;;;18.16;24.54;101016.09;18628363;31;20382;-64
2022/04/11 10:21:14;;;;;;;1.90;1.20;;;;;;;18.78;25.64;101011.03;18628176;31;20119;-64
2022/04/11 10:31:38;;;;;;;2.22;1.50;;;;;;;18.23;24.36;101008.88;18628078;31;20080;-64
2022/04/11 10:42:06;;;;;;;8.35;2.53;;;;;;;15.30;26.53;101017.59;18627012;31;20096;-64
2022/04/11 10:52:32;;;;;;;3.10;1.52;;;;;;;15.51;29.10;101012.06;18627146;31;20100;-64
2022/04/11 11:03:08;;;;;;;2.80;1.35;;;;;;;15.31;28.94;101021.94;18628059;31;20136;-63
2022/04/11 11:13:40;;;;;;;2.30;1.37;;;;;;;14.81;29.63;100996.22;18612189;31;20087;-63
2022/04/11 11:24:10;;;;;;;3.37;1.67;;;;;;;14.62;29.03;101000.75;18626172;31;20120;-64
2022/04/11 11:34:16;;;;;;;2.53;1.48;;;;;;;15.94;29.07;100986.94;18612674;31;20129;-63
2022/04/11 11:44:20;;;;;;;4.22;1.98;;;;;;;15.21;27.61;100992.28;18626424;31;20114;-63
2022/04/11 11:54:35;;;;;;;3.95;1.30;;;;;;;14.70;30.11;100968.25;18610650;31;20088;-63
2022/04/11 12:04:39;;;;;;;1.30;1.20;;;;;;;16.02;25.88;100963.13;18626598;31;20493;-64
2022/04/11 12:15:02;;;;;;;3.28;1.40;;;;;;;15.36;27.24;100964.91;18610189;31;20180;-64
2022/04/11 12:25:24;;;;;;;3.62;1.65;;;;;;;15.12;27.19;100973.09;18624549;31;20151;-64
2022/04/11 12:35:28;;;;;;;2.67;1.52;;;;;;;15.29;27.91;100958.87;18623912;31;20115;-64
2022/04/11 12:45:32;;;;;;;1.85;1.10;;;;;;;16.38;28.25;100938.81;18607781;31;20397;-64
2022/04/11 12:55:37;;;;;;;2.00;1.30;;;;;;;15.23;25.42;100943.16;18620462;31;20111;-64
2022/04/11 13:05:40;;;;;;;2.50;1.40;;;;;;;14.91;26.05;100942.66;18627983;31;20092;-64
2022/04/11 13:26:01;;;;;;;2.00;1.25;;;;;;;17.28;24.74;100916.00;18629046;31;20425;-64
2022/04/11 13:36:07;;;;;;;1.92;1.20;;;;;;;17.10;22.90;100903.19;18616942;31;20088;-64
2022/04/11 13:46:10;;;;;;;1.90;1.20;;;;;;;17.30;22.84;100901.00;18616564;31;20369;-64
2022/04/11 13:56:15;;;;;;;2.37;1.40;;;;;;;16.82;24.54;100901.09;18615597;31;20092;-64
2022/04/11 14:06:18;;;;;;;2.47;1.27;;;;;;;17.44;24.28;100882.19;18615459;31;20123;-64
2022/04/11 14:16:22;;;;;;;1.40;1.20;;;;;;;17.25;22.60;100889.66;18628776;31;20096;-64
2022/04/11 14:26:26;;;;;;;4.32;2.12;;;;;;;16.77;23.35;100883.59;18614515;31;20375;-64
2022/04/11 14:36:32;;;;;;;4.55;1.50;;;;;;;16.53;25.04;100868.28;18614680;31;20105;-64
2022/04/11 14:46:47;;;;;;;2.00;1.37;;;;;;;16.67;24.55;100868.88;18613768;31;20114;-64
2022/04/11 14:56:52;;;;;;;2.10;1.30;;;;;;;16.47;24.85;100874.53;18614331;31;20414;-64
2022/04/11 15:06:56;;;;;;;1.42;1.10;;;;;;;17.16;21.43;100860.84;18627782;31;20081;-65
2022/04/11 15:17:00;;;;;;;2.83;1.40;;;;;;;16.56;23.12;100855.03;18627524;31;20096;-64
2022/04/11 15:27:04;;;;;;;4.70;1.98;;;;;;;16.36;24.01;100856.28;18611361;31;20115;-64
2022/04/11 15:37:08;;;;;;;8.43;2.37;;;;;;;16.28;24.31;100860.84;18610692;31;20091;-64
2022/04/11 15:47:12;;;;;;;2.10;1.20;;;;;;;16.02;24.78;100856.91;18626072;31;20363;-64
2022/04/11 15:57:16;;;;;;;3.87;1.90;;;;;;;15.83;24.09;100854.56;18626185;31;20092;-64
2022/04/11 16:07:19;;;;;;;1.58;1.20;;;;;;;15.34;25.41;100850.97;18601588;31;20103;-65
2022/04/11 16:17:24;;;;;;;5.37;1.30;;;;;;;15.24;25.04;100856.34;18586229;31;20462;-64
2022/04/11 16:27:27;;;;;;;2.28;1.33;;;;;;;15.07;25.29;100847.81;18583062;31;20106;-65
2022/04/11 16:37:32;;;;;;;2.50;1.33;;;;;;;14.67;25.60;100855.31;18590600;31;20487;-64
2022/04/11 16:47:35;;;;;;;8.05;2.47;;;;;;;14.24;25.70;100866.28;18569518;31;20096;-65
2022/04/11 16:57:40;;;;;;;4.28;2.00;;;;;;;14.12;26.62;100872.50;18628057;31;20112;-64
2022/04/11 17:07:43;;;;;;;24.23;7.45;;;;;;;13.90;26.86;100872.72;18628260;31;20104;-64
2022/04/11 17:28:05;;;;;;;8.73;4.28;;;;;;;13.24;29.30;100884.50;18578159;31;20466;-64
2022/04/11 17:38:11;;;;;;;11.68;4.25;;;;;;;12.87;30.19;100904.75;18553390;31;20104;-64
2022/04/11 17:48:14;;;;;;;9.38;3.08;;;;;;;12.60;31.64;100905.72;18550971;31;20122;-64
2022/04/11 17:58:19;;;;;;;3.40;2.03;;;;;;;12.05;35.06;100916.25;18593936;31;20107;-64
2022/04/11 18:08:22;;;;;;;3.78;1.70;;;;;;;11.03;37.45;100919.47;18563567;31;20096;-63
2022/04/11 18:18:27;;;;;;;5.35;1.50;;;;;;;10.29;40.05;100940.78;18600083;31;20143;-64
2022/04/11 18:38:52;;;;;;;2.53;1.27;;;;;;;9.29;41.29;100965.00;18566990;31;20355;-63
2022/04/11 18:48:56;;;;;;;2.37;1.40;;;;;;;8.61;44.64;100980.56;18549213;32;20435;-63
2022/04/11 18:59:00;;;;;;;2.97;1.60;;;;;;;8.39;45.88;100990.63;18574407;31;20115;-63
2022/04/11 19:09:06;;;;;;;2.37;1.37;;;;;;;7.87;45.56;100995.78;18581765;31;20144;-63
2022/04/11 19:19:10;;;;;;;5.10;2.00;;;;;;;7.47;46.22;100994.19;18593274;31;20110;-63
2022/04/11 19:29:13;;;;;;;3.67;1.60;;;;;;;7.07;45.71;100989.03;18608748;31;20088;-63
2022/04/11 19:39:18;;;;;;;5.60;2.45;;;;;;;6.58;47.09;100993.97;18610934;31;20100;-63
2022/04/11 19:59:44;;;;;;;7.95;3.67;;;;;;;6.59;48.28;100982.78;18551256;31;20088;-64
2022/04/11 20:09:47;;;;;;;9.85;3.75;;;;;;;6.24;50.14;100991.44;18571469;31;20122;-63
2022/04/11 20:19:51;;;;;;;11.90;4.15;;;;;;;6.01;50.82;100988.22;18572931;31;20096;-63
2022/04/11 20:29:54;;;;;;;11.80;4.15;;;;;;;6.22;51.44;101003.47;18607604;31;20118;-63
2022/04/11 20:39:59;;;;;;;12.57;4.85;;;;;;;5.71;52.79;101009.03;18623128;31;20389;-63
2022/04/11 20:50:02;;;;;;;16.17;6.40;;;;;;;5.39;53.60;101012.44;18621002;31;20420;-63
2022/04/11 21:00:09;;;;;;;13.80;6.00;;;;;;;5.31;54.85;101021.69;18620462;31;20180;-63
2022/04/11 21:10:12;;;;;;;8.00;3.40;;;;;;;5.14;55.24;101017.78;18620979;31;20092;-63
2022/04/11 21:20:16;;;;;;;5.35;2.87;;;;;;;5.03;55.60;101019.19;18607891;31;20130;-63
2022/04/11 21:30:20;;;;;;;12.95;4.53;;;;;;;4.71;57.63;101006.09;18628651;31;20095;-63
2022/04/11 21:40:24;;;;;;;13.82;5.43;;;;;;;4.60;57.83;101008.38;18613665;31;20096;-63
2022/04/11 21:50:27;;;;;;;11.65;5.45;;;;;;;4.25;57.39;101010.66;18628159;31;20110;-63
2022/04/11 22:00:37;;;;;;;13.05;6.00;;;;;;;4.29;57.24;101021.16;18628266;31;20136;-63
2022/04/11 22:10:41;;;;;;;9.55;4.78;;;;;;;4.32;59.36;101022.09;18613939;31;20123;-63
2022/04/11 22:20:46;;;;;;;7.72;3.37;;;;;;;4.13;59.53;101022.34;18626756;31;20456;-63
2022/04/11 22:30:49;;;;;;;12.15;5.10;;;;;;;3.98;59.50;101032.16;18626194;31;20104;-63
2022/04/11 22:40:54;;;;;;;12.05;6.28;;;;;;;4.03;59.59;101040.91;18613819;31;20663;-63
2022/04/11 22:51:03;;;;;;;10.45;5.28;;;;;;;3.61;61.45;101036.87;18626587;31;20105;-63
2022/04/11 23:01:08;;;;;;;8.77;4.15;;;;;;;3.58;60.78;101037.66;18626750;31;20110;-63
2022/04/11 23:11:11;;;;;;;10.02;4.57;;;;;;;3.68;60.42;101027.66;18612742;31;20757;-63
2022/04/11 23:21:16;;;;;;;10.75;4.28;;;;;;;3.38;62.06;101030.88;18626231;31;20095;-63
2022/04/11 23:31:19;;;;;;;11.27;5.25;;;;;;;3.18;62.50;101021.53;18626000;31;20139;-63
2022/04/11 23:41:25;;;;;;;8.70;3.50;;;;;;;3.27;62.85;101025.28;18625798;31;20100;-63
2022/04/11 23:51:28;;;;;;;7.68;4.15;;;;;;;3.11;63.17;101016.97;18626041;31;20394;-63
